Главная страница
METAR-TAF:

METAR-TAF

Аэропорты :

Meriden-Markham Municipal Airport

Meriden, Коннектикут, США

широта: 41-30-35N, долгота: 072-49-40W, высота над уровнем моря: 31 м

Текущие метеонаблюдения

Эта сводка был подготовлена 54 минут назад, в 05:53 UTC
Ветер 8 Узел от южный с порывами до 16 Узел
Температура 13°C
Влажность 67%
Давление 1010 hPa
Видимость: 16.1 км
ясное небо

METAR: KMMK 200553Z AUTO 19008G16KT 10SM CLR 13/07 A2983 RMK AO2 SLP102 T01330067 10133 20078 58030 $

Время: 02:47 (06:47 UTC)


TAF: отсутствует

Метеонаблюдения и прогнозы для более 4000 аэропортов (сводки METAR и TAF).

Имеющиеся станции представлены на карте желтыми и красными точками.

Чтобы увидеть название станции, наведите на нее мышь.

Затем щелкните, чтобы увидеть метеонаблюдения и метеопрогнозы.

Управление картой: чтобы увеличить масштаб, щелкните зеленые кнопки с черным крестиком; чтобы уменьшить масштаб, щелкните зеленую кнопку с тире; для просмотра соседних карт щелкайте зеленые стрелки.


METAR-TAF: